Aqaba Port, Jordan

8:23 AM EEST on August 30, 2016 (GMT +0300)
Aqaba International | | Change Station

Elev 174 ft 29.61 °N, 35.02 °E | Updated 23 minutes ago

Scattered Clouds
Scattered Clouds
82 °F
Feels Like 86 °F
N
16
Wind Variable Wind from North

Today
High -- | Low -- °F
--% Chance of Precip.
Yesterday
High -- | Low -- °F
Precip. -- in
Pressure 29.77 in
Visibility 6.2 miles
Clouds Scattered Clouds 3500 ft
Heat Index 86 °F
Dew Point 70 °F
Humidity 66%
Rainfall 0.00 in
Snow Depth Not available.
6:16 AM 7:04 PM
Waning Crescent, 5% visible
METAR OJAQ 300500Z 36014KT 9999 SCT035 28/21 Q1008 NOSIG
Pressure 29.77 in
Visibility 6.2 miles
Clouds Scattered Clouds 3500 ft
Heat Index 86 °F
Dew Point 70 °F
Humidity 66%
Rainfall 0.00 in
Snow Depth Not available.
6:16 AM 7:04 PM
Waning Crescent, 5% visible
METAR OJAQ 300500Z 36014KT 9999 SCT035 28/21 Q1008 NOSIG

10-Day Weather Forecast

No radar image for this location.
×

Almanac

Astronomy

Aug. 30, 2016 Rise Set
Actual Time
Civil Twilight
Nautical Twilight
Astronomical Twilight
Moon
Length of Visible Light
Length of Day
Tomorrow will be .
, % of the Moon is Illuminated

Today's Extremes

Country Highs Country Lows

Community

WunderPhotos

Upload Photos

1,935,793 photos uploaded!

WunderBlog® & News

Nearby

Air Quality

  Air Quality AQ Index Pollutant
Not available.

Snow Depth

Station Depth Elevation

Earthquake Activity

City Distance Mag. Time & Date
Minimum magnitude displayed is 2.5.

Coastal Water Temperatures

Place Temperature

Stations

Nearby Weather Stations

Station Location Temp. Windchill Dew Point Humidity Wind Precip. Elev Updated Type